createdAt,value
2018-04-18T00:02:01.178Z,14.45
2018-04-18T00:04:29.431Z,14.49
2018-04-18T00:06:57.726Z,14.50
2018-04-18T00:09:26.002Z,14.62
2018-04-18T00:11:54.410Z,14.50
2018-04-18T00:14:22.695Z,14.46
2018-04-18T00:16:51.950Z,14.59
2018-04-18T00:19:20.220Z,14.56
2018-04-18T00:21:48.492Z,14.61
2018-04-18T00:24:16.773Z,14.46
2018-04-18T00:26:45.061Z,14.53
2018-04-18T00:29:13.315Z,14.53
2018-04-18T00:31:41.595Z,14.53
2018-04-18T00:34:09.851Z,14.52
2018-04-18T00:36:38.131Z,14.39
2018-04-18T00:39:06.403Z,14.38
2018-04-18T00:41:34.695Z,14.20
2018-04-18T00:44:02.974Z,14.04
2018-04-18T00:46:31.291Z,14.08
2018-04-18T00:49:00.329Z,14.16
2018-04-18T00:51:28.624Z,14.16
2018-04-18T00:53:57.209Z,14.03
2018-04-18T00:56:25.516Z,14.04
2018-04-18T00:58:54.543Z,14.12
2018-04-18T01:01:22.806Z,14.15
2018-04-18T01:03:51.124Z,14.18
2018-04-18T01:06:19.383Z,14.09
2018-04-18T01:08:47.672Z,14.09
2018-04-18T01:11:15.962Z,14.07
2018-04-18T01:13:44.300Z,13.93
2018-04-18T01:16:12.563Z,13.91
2018-04-18T01:18:40.855Z,14.10
2018-04-18T01:21:09.114Z,14.18
2018-04-18T01:23:37.406Z,14.17
2018-04-18T01:26:05.780Z,14.13
2018-04-18T01:28:34.082Z,14.08
2018-04-18T01:31:02.343Z,14.02
2018-04-18T01:33:30.613Z,14.00
2018-04-18T01:35:59.171Z,13.94
2018-04-18T01:38:27.467Z,14.03
2018-04-18T01:40:55.755Z,14.06
2018-04-18T01:43:24.023Z,13.97
2018-04-18T01:45:52.288Z,13.88
2018-04-18T01:48:20.577Z,13.75
2018-04-18T01:50:48.841Z,13.70
2018-04-18T01:53:17.128Z,13.68
2018-04-18T01:55:45.388Z,13.58
2018-04-18T01:58:13.645Z,13.55
2018-04-18T02:00:41.942Z,13.33
2018-04-18T02:03:10.218Z,13.42
2018-04-18T02:05:38.622Z,13.49
2018-04-18T02:08:06.884Z,13.52
2018-04-18T02:10:35.149Z,13.46
2018-04-18T02:13:03.730Z,13.60
2018-04-18T02:18:06.545Z,13.49
2018-04-18T02:20:35.272Z,13.48
2018-04-18T02:23:04.577Z,13.29
2018-04-18T02:25:33.622Z,13.41
2018-04-18T02:28:01.904Z,13.50
2018-04-18T02:30:30.197Z,13.39
2018-04-18T02:32:58.507Z,13.24
2018-04-18T02:35:26.838Z,13.23
2018-04-18T02:37:55.104Z,13.07
2018-04-18T02:40:23.368Z,13.09
2018-04-18T02:42:51.645Z,13.15
2018-04-18T02:45:19.918Z,13.10
2018-04-18T02:47:48.215Z,12.98
2018-04-18T02:50:16.475Z,12.97
2018-04-18T02:52:44.750Z,12.91
2018-04-18T02:55:13.038Z,12.99
2018-04-18T02:57:41.301Z,12.94
2018-04-18T03:00:09.602Z,12.81
2018-04-18T03:02:37.861Z,12.83
2018-04-18T03:05:06.324Z,12.67
2018-04-18T03:07:34.597Z,12.68
2018-04-18T03:10:02.875Z,12.65
2018-04-18T03:12:31.245Z,12.59
2018-04-18T03:14:59.525Z,12.73
2018-04-18T03:17:27.792Z,12.64
2018-04-18T03:19:56.061Z,12.55
2018-04-18T03:22:24.418Z,12.78
2018-04-18T03:24:53.467Z,12.75
2018-04-18T03:27:21.723Z,12.94
2018-04-18T03:29:50.002Z,12.73
2018-04-18T03:32:18.277Z,12.66
2018-04-18T03:34:46.576Z,12.64
2018-04-18T03:37:16.340Z,12.70
2018-04-18T03:39:44.620Z,12.78
2018-04-18T03:42:12.887Z,12.71
2018-04-18T03:44:41.148Z,12.66
2018-04-18T03:47:09.493Z,12.70
2018-04-18T03:49:37.762Z,12.64
2018-04-18T03:52:06.050Z,12.65
2018-04-18T03:54:35.090Z,12.58
2018-04-18T03:57:03.363Z,12.44
2018-04-18T03:59:31.663Z,12.59
2018-04-18T04:01:59.983Z,12.66
2018-04-18T04:04:29.008Z,12.57
2018-04-18T04:06:57.284Z,12.51
2018-04-18T04:09:25.556Z,12.61
2018-04-18T04:11:53.823Z,12.67
2018-04-18T04:14:22.120Z,12.57
2018-04-18T04:17:07.946Z,12.51
2018-04-18T04:19:54.730Z,12.50
2018-04-18T04:22:40.724Z,12.49
2018-04-18T04:25:09.220Z,12.54
2018-04-18T04:27:37.509Z,12.49
2018-04-18T04:30:06.674Z,12.50
2018-04-18T04:32:35.735Z,12.41
2018-04-18T04:35:03.999Z,12.47
2018-04-18T04:37:32.254Z,12.57
2018-04-18T04:40:01.315Z,12.61
2018-04-18T04:42:29.591Z,12.22
2018-04-18T04:44:57.896Z,12.41
2018-04-18T04:47:26.922Z,12.61
2018-04-18T04:49:55.303Z,12.57
2018-04-18T04:52:23.561Z,12.60
2018-04-18T04:54:51.851Z,12.52
2018-04-18T04:57:20.124Z,12.86
2018-04-18T04:59:48.400Z,12.76
2018-04-18T05:02:16.856Z,12.71
2018-04-18T05:04:45.275Z,12.81
2018-04-18T05:07:13.554Z,12.81
2018-04-18T05:09:41.837Z,12.83
2018-04-18T05:12:10.098Z,12.83
2018-04-18T05:14:38.361Z,12.77
2018-04-18T05:17:06.654Z,12.76
2018-04-18T05:19:34.969Z,12.69
2018-04-18T05:22:04.029Z,12.73
2018-04-18T05:24:32.322Z,12.75
2018-04-18T05:27:00.759Z,12.77
2018-04-18T05:29:29.061Z,12.94
2018-04-18T05:31:57.375Z,13.10
2018-04-18T05:34:26.399Z,13.07
2018-04-18T05:36:54.690Z,13.11
2018-04-18T05:39:23.014Z,13.25
2018-04-18T05:41:52.082Z,13.01
2018-04-18T05:44:20.470Z,12.97
2018-04-18T05:46:48.864Z,13.23
2018-04-18T05:49:17.901Z,13.11
2018-04-18T05:51:46.212Z,13.10
2018-04-18T05:54:14.485Z,13.25
2018-04-18T05:56:42.790Z,13.43
2018-04-18T05:59:11.838Z,13.58
2018-04-18T06:01:40.167Z,13.46
2018-04-18T06:04:09.210Z,13.38
2018-04-18T06:06:37.488Z,13.55
2018-04-18T06:09:06.565Z,13.48
2018-04-18T06:11:34.840Z,13.48
2018-04-18T06:14:03.134Z,13.49
2018-04-18T06:16:31.422Z,13.52
2018-04-18T06:18:59.745Z,13.71
2018-04-18T06:21:28.032Z,13.70
2018-04-18T06:23:56.323Z,13.84
2018-04-18T06:26:24.992Z,14.06
2018-04-18T06:28:53.331Z,14.29
2018-04-18T06:31:21.645Z,14.34
2018-04-18T06:33:50.062Z,14.36
2018-04-18T06:36:18.353Z,14.44
2018-04-18T06:38:47.499Z,14.67
2018-04-18T06:41:15.782Z,14.70
2018-04-18T06:43:44.058Z,14.90
2018-04-18T06:46:12.335Z,15.07
2018-04-18T06:48:40.817Z,15.16
2018-04-18T06:51:09.114Z,15.19
2018-04-18T06:53:37.513Z,15.30
2018-04-18T06:56:06.548Z,15.34
2018-04-18T06:58:34.819Z,15.51
2018-04-18T07:01:03.109Z,15.55
2018-04-18T07:03:31.407Z,15.65
2018-04-18T07:05:59.675Z,15.89
2018-04-18T07:08:28.213Z,15.97
2018-04-18T07:10:56.482Z,15.91
2018-04-18T07:13:24.737Z,15.98
2018-04-18T07:15:53.795Z,15.95
2018-04-18T07:18:22.067Z,16.10
2018-04-18T07:20:50.328Z,16.12
2018-04-18T07:23:18.606Z,16.11
2018-04-18T07:25:46.872Z,16.16
2018-04-18T07:28:15.165Z,16.21
2018-04-18T07:30:43.426Z,16.32
2018-04-18T07:33:11.742Z,16.30
2018-04-18T07:35:40.026Z,16.30
2018-04-18T07:38:08.360Z,16.41
2018-04-18T07:40:36.939Z,16.49
2018-04-18T07:43:05.414Z,16.51
2018-04-18T07:45:34.725Z,16.63
2018-04-18T07:48:03.092Z,16.65
2018-04-18T07:50:31.885Z,16.64
2018-04-18T07:53:00.154Z,16.71
2018-04-18T07:55:28.470Z,16.76
2018-04-18T07:57:56.734Z,16.85
2018-04-18T08:00:25.168Z,17.02
2018-04-18T08:02:53.425Z,17.11
2018-04-18T08:05:21.706Z,17.19
2018-04-18T08:07:49.993Z,17.35
2018-04-18T08:10:18.292Z,17.41
2018-04-18T08:12:46.578Z,17.54
2018-04-18T08:15:14.897Z,17.68
2018-04-18T08:17:43.938Z,17.79
2018-04-18T08:20:12.218Z,17.89
2018-04-18T08:22:45.561Z,17.98
2018-04-18T08:25:14.821Z,18.16
2018-04-18T08:27:57.887Z,18.19
2018-04-18T08:30:26.200Z,18.33
2018-04-18T08:32:54.451Z,18.50
2018-04-18T08:35:22.745Z,18.64
2018-04-18T08:37:51.017Z,18.69
2018-04-18T08:40:24.421Z,18.97
2018-04-18T08:42:52.701Z,18.97
2018-04-18T08:45:20.976Z,19.11
2018-04-18T08:47:49.300Z,19.14
2018-04-18T08:50:18.345Z,19.33
2018-04-18T08:52:46.631Z,19.50
2018-04-18T08:55:14.901Z,19.64
2018-04-18T08:57:43.218Z,19.82
2018-04-18T09:00:11.514Z,19.91
2018-04-18T09:02:39.807Z,20.05
2018-04-18T09:05:08.078Z,20.20
2018-04-18T09:07:36.375Z,20.12
2018-04-18T09:10:04.691Z,20.29
2018-04-18T09:12:33.746Z,20.42
2018-04-18T09:15:02.074Z,20.52
2018-04-18T09:17:30.345Z,20.82
2018-04-18T09:19:58.634Z,20.74
2018-04-18T09:22:26.898Z,21.11
2018-04-18T09:24:55.941Z,21.36
2018-04-18T09:27:24.384Z,21.88
2018-04-18T09:29:52.680Z,23.03
2018-04-18T09:32:20.962Z,24.48
2018-04-18T09:34:49.355Z,24.91
2018-04-18T09:37:17.640Z,25.43
2018-04-18T09:39:46.041Z,26.27
2018-04-18T09:42:14.987Z,26.13
2018-04-18T09:44:43.529Z,26.44
2018-04-18T09:47:12.607Z,27.09
2018-04-18T09:49:42.267Z,27.85
2018-04-18T09:52:10.541Z,27.92
2018-04-18T09:54:38.868Z,28.01
2018-04-18T09:57:07.937Z,28.48
2018-04-18T09:59:36.250Z,28.51
2018-04-18T10:02:09.980Z,28.72
2018-04-18T10:04:43.863Z,29.30
2018-04-18T10:07:12.898Z,28.95
2018-04-18T10:09:41.426Z,29.20
2018-04-18T10:12:09.813Z,29.63
2018-04-18T10:14:38.112Z,29.45
2018-04-18T10:17:06.606Z,29.80
2018-04-18T10:19:34.971Z,30.34
2018-04-18T10:22:03.277Z,30.74
2018-04-18T10:24:31.544Z,29.49
2018-04-18T10:26:59.862Z,28.54
2018-04-18T10:29:28.894Z,29.78
2018-04-18T10:31:57.191Z,29.72
2018-04-18T10:34:25.572Z,30.26
2018-04-18T10:36:53.825Z,29.46
2018-04-18T10:39:22.099Z,30.07
2018-04-18T10:41:50.388Z,31.88
2018-04-18T10:44:18.671Z,30.93
2018-04-18T10:46:47.220Z,32.03
2018-04-18T10:49:15.499Z,32.45
2018-04-18T10:51:43.754Z,32.03
2018-04-18T10:54:12.206Z,31.65
2018-04-18T10:56:40.483Z,32.52
2018-04-18T10:59:08.824Z,31.38
2018-04-18T11:01:37.168Z,32.77
2018-04-18T11:04:05.465Z,32.56
2018-04-18T11:06:33.750Z,33.17
2018-04-18T11:09:02.114Z,32.66
2018-04-18T11:11:30.349Z,33.06
2018-04-18T11:13:59.377Z,32.54
2018-04-18T11:16:27.657Z,33.06
2018-04-18T11:18:55.963Z,32.20
2018-04-18T11:21:24.264Z,33.17
2018-04-18T11:23:52.589Z,33.32
2018-04-18T11:26:20.871Z,33.72
2018-04-18T11:28:49.527Z,32.95
2018-04-18T11:31:17.795Z,32.54
2018-04-18T11:33:46.063Z,33.43
2018-04-18T11:36:14.341Z,34.18
2018-04-18T11:38:42.729Z,33.75
2018-04-18T11:41:11.012Z,33.74
2018-04-18T11:43:39.647Z,33.91
2018-04-18T11:46:08.018Z,32.98
2018-04-18T11:48:37.105Z,33.78
2018-04-18T11:51:05.404Z,34.07
2018-04-18T11:53:33.667Z,33.36
2018-04-18T11:56:01.995Z,33.78
2018-04-18T11:58:30.256Z,33.97
2018-04-18T12:00:58.533Z,32.83
2018-04-18T12:03:26.806Z,33.92
2018-04-18T12:05:55.117Z,33.61
2018-04-18T12:08:23.415Z,34.29
2018-04-18T12:10:51.681Z,34.31
2018-04-18T12:13:20.078Z,35.06
2018-04-18T12:15:48.342Z,35.32
2018-04-18T12:18:16.776Z,34.41
2018-04-18T12:20:45.055Z,34.25
2018-04-18T12:23:13.326Z,34.56
2018-04-18T12:25:41.603Z,33.80
2018-04-18T12:28:09.854Z,34.46
2018-04-18T12:30:38.179Z,33.63
2018-04-18T12:33:06.434Z,33.52
2018-04-18T12:35:34.733Z,34.05
2018-04-18T12:38:02.996Z,34.57
2018-04-18T12:40:31.350Z,32.98
2018-04-18T12:42:59.658Z,33.89
2018-04-18T12:45:27.947Z,32.96
2018-04-18T12:47:56.293Z,32.14
2018-04-18T12:50:24.864Z,30.99
2018-04-18T12:52:53.419Z,30.13
2018-04-18T12:55:22.453Z,29.70
2018-04-18T12:57:50.721Z,28.50
2018-04-18T13:00:19.069Z,28.49
2018-04-18T13:02:47.400Z,28.31
2018-04-18T13:05:15.659Z,28.30
2018-04-18T13:07:43.964Z,28.17
2018-04-18T13:10:12.263Z,27.91
2018-04-18T13:12:41.307Z,27.58
2018-04-18T13:15:09.563Z,27.32
2018-04-18T13:17:37.872Z,27.55
2018-04-18T13:20:06.139Z,27.37
2018-04-18T13:22:34.458Z,27.51
2018-04-18T13:25:04.250Z,27.49
2018-04-18T13:27:32.533Z,27.66
2018-04-18T13:30:02.005Z,27.77
2018-04-18T13:32:30.287Z,27.69
2018-04-18T13:34:58.548Z,27.61
2018-04-18T13:37:26.819Z,27.60
2018-04-18T13:39:55.300Z,27.52
2018-04-18T13:42:23.579Z,27.43
2018-04-18T13:44:51.858Z,27.59
2018-04-18T13:47:20.129Z,27.37
2018-04-18T13:49:48.430Z,27.46
2018-04-18T13:52:16.720Z,27.44
2018-04-18T13:54:45.816Z,27.46
2018-04-18T13:57:14.156Z,27.74
2018-04-18T13:59:42.526Z,27.70
2018-04-18T14:02:10.868Z,27.55
2018-04-18T14:04:39.085Z,27.81
2018-04-18T14:07:07.445Z,27.81
2018-04-18T14:09:35.722Z,27.82
2018-04-18T14:12:04.391Z,27.71
2018-04-18T14:14:32.693Z,27.63
2018-04-18T14:17:01.070Z,27.49
2018-04-18T14:19:29.403Z,27.48
2018-04-18T14:21:57.677Z,27.52
2018-04-18T14:24:25.945Z,27.54
2018-04-18T14:26:54.255Z,27.48
2018-04-18T14:29:22.626Z,27.42
2018-04-18T14:31:50.954Z,27.47
2018-04-18T14:34:19.184Z,27.94
2018-04-18T14:36:47.491Z,28.14
2018-04-18T14:39:15.879Z,28.41
2018-04-18T14:41:44.179Z,28.38
2018-04-18T14:44:12.467Z,27.89
2018-04-18T14:46:40.727Z,28.03
2018-04-18T14:49:09.775Z,28.11
2018-04-18T14:51:38.046Z,28.31
2018-04-18T14:54:06.649Z,28.12
2018-04-18T14:56:34.989Z,27.93
2018-04-18T14:59:03.270Z,27.70
2018-04-18T15:01:31.535Z,28.03
2018-04-18T15:03:59.819Z,28.04
2018-04-18T15:06:28.177Z,27.81
2018-04-18T15:08:56.475Z,28.03
2018-04-18T15:11:24.769Z,27.93
2018-04-18T15:13:53.031Z,27.80
2018-04-18T15:16:21.417Z,27.97
2018-04-18T15:18:49.671Z,28.25
2018-04-18T15:21:17.946Z,28.07
2018-04-18T15:23:46.215Z,28.08
2018-04-18T15:26:14.514Z,28.58
2018-04-18T15:28:43.058Z,28.68
2018-04-18T15:31:11.596Z,28.48
2018-04-18T15:33:39.910Z,28.26
2018-04-18T15:36:08.193Z,28.55
2018-04-18T15:38:36.468Z,29.03
2018-04-18T15:41:04.755Z,29.79
2018-04-18T15:43:33.017Z,30.08
2018-04-18T15:46:01.304Z,30.04
2018-04-18T15:48:29.587Z,30.06
2018-04-18T15:50:57.857Z,30.50
2018-04-18T15:53:26.137Z,30.65
2018-04-18T15:55:54.499Z,30.75
2018-04-18T15:58:22.813Z,30.03
2018-04-18T16:00:51.331Z,29.56
2018-04-18T16:03:20.650Z,30.12
2018-04-18T16:05:48.972Z,30.44
2018-04-18T16:08:17.519Z,30.92
2018-04-18T16:10:46.132Z,30.52
2018-04-18T16:13:15.336Z,30.14
2018-04-18T16:15:43.755Z,30.56
2018-04-18T16:18:12.088Z,30.13
2018-04-18T16:20:40.387Z,30.14
2018-04-18T16:23:09.453Z,30.19
2018-04-18T16:25:37.875Z,29.60
2018-04-18T16:28:06.544Z,29.60
2018-04-18T16:30:41.624Z,29.86
2018-04-18T16:33:09.942Z,29.76
2018-04-18T16:35:38.397Z,29.10
2018-04-18T16:38:06.674Z,28.84
2018-04-18T16:40:35.250Z,28.40
2018-04-18T16:43:03.825Z,28.46
2018-04-18T16:45:32.421Z,28.16
2018-04-18T16:48:00.815Z,27.47
2018-04-18T16:50:29.213Z,27.38
2018-04-18T16:52:57.749Z,27.57
2018-04-18T16:55:26.324Z,27.51
2018-04-18T16:57:54.907Z,27.40
2018-04-18T17:00:23.384Z,26.79
2018-04-18T17:02:52.217Z,26.75
2018-04-18T17:05:20.823Z,26.42
2018-04-18T17:07:49.202Z,26.35
2018-04-18T17:10:17.551Z,26.20
2018-04-18T17:12:46.041Z,26.03
2018-04-18T17:15:14.617Z,25.95
2018-04-18T17:17:43.007Z,25.80
2018-04-18T17:20:11.372Z,25.63
2018-04-18T17:22:41.766Z,25.34
2018-04-18T17:25:10.088Z,25.55
2018-04-18T17:27:38.476Z,25.25
2018-04-18T17:30:07.608Z,25.13
2018-04-18T17:32:36.455Z,24.91
2018-04-18T17:35:05.546Z,24.78
2018-04-18T17:37:34.786Z,24.82
2018-04-18T17:40:03.291Z,24.98
2018-04-18T17:42:35.661Z,24.75
2018-04-18T17:45:04.048Z,24.47
2018-04-18T17:47:32.390Z,24.39
2018-04-18T17:50:00.721Z,24.41
2018-04-18T17:52:29.170Z,24.37
2018-04-18T17:54:57.552Z,24.18
2018-04-18T17:57:26.259Z,23.92
2018-04-18T17:59:54.579Z,23.89
2018-04-18T18:02:22.883Z,23.93
2018-04-18T18:04:51.227Z,23.86
2018-04-18T18:07:19.547Z,23.78
2018-04-18T18:09:47.893Z,23.71
2018-04-18T18:12:16.283Z,23.51
2018-04-18T18:14:45.090Z,23.52
2018-04-18T18:17:13.629Z,23.38
2018-04-18T18:19:41.920Z,23.23
2018-04-18T18:22:10.291Z,23.11
2018-04-18T18:24:38.673Z,22.96
2018-04-18T18:27:07.046Z,22.64
2018-04-18T18:29:35.366Z,22.41
2018-04-18T18:32:03.830Z,22.14
2018-04-18T18:34:32.209Z,21.97
2018-04-18T18:37:00.652Z,21.68
2018-04-18T18:39:29.109Z,21.89
2018-04-18T18:41:57.458Z,21.63
2018-04-18T18:44:25.842Z,21.47
2018-04-18T18:46:54.266Z,21.27
2018-04-18T18:49:22.975Z,21.07
2018-04-18T18:51:51.391Z,21.06
2018-04-18T18:54:20.749Z,20.90
2018-04-18T18:56:49.092Z,20.79
2018-04-18T18:59:17.390Z,20.64
2018-04-18T19:01:45.792Z,20.60
2018-04-18T19:04:14.352Z,20.49
2018-04-18T19:06:42.735Z,20.36
2018-04-18T19:09:11.040Z,20.28
2018-04-18T19:11:39.540Z,20.26
2018-04-18T19:14:08.172Z,20.12
2018-04-18T19:16:36.718Z,19.97
2018-04-18T19:19:05.205Z,19.68
2018-04-18T19:21:33.559Z,19.67
2018-04-18T19:24:02.922Z,19.74
2018-04-18T19:26:31.287Z,19.69
2018-04-18T19:28:59.640Z,19.61
2018-04-18T19:31:28.001Z,19.47
2018-04-18T19:33:57.132Z,19.47
2018-04-18T19:36:25.611Z,19.63
2018-04-18T19:38:54.354Z,19.42
2018-04-18T19:41:47.196Z,19.42
2018-04-18T19:44:33.705Z,19.39
2018-04-18T19:47:02.188Z,19.26
2018-04-18T19:49:31.543Z,19.43
2018-04-18T19:52:00.174Z,19.44
2018-04-18T19:54:28.617Z,19.27
2018-04-18T19:56:57.178Z,19.18
2018-04-18T19:59:26.395Z,19.16
2018-04-18T20:01:55.909Z,19.05
2018-04-18T20:04:24.576Z,19.00
2018-04-18T20:06:53.095Z,18.83
2018-04-18T20:09:21.386Z,18.92
2018-04-18T20:11:49.713Z,18.91
2018-04-18T20:14:17.972Z,19.04
2018-04-18T20:16:46.239Z,19.09
2018-04-18T20:19:14.582Z,19.41
2018-04-18T20:21:43.625Z,19.74
2018-04-18T20:24:11.966Z,19.65
2018-04-18T20:26:40.999Z,19.57
2018-04-18T20:29:09.309Z,20.07
2018-04-18T20:31:38.594Z,20.34
2018-04-18T20:34:06.851Z,20.77
2018-04-18T20:36:50.834Z,20.97
2018-04-18T20:39:19.870Z,20.61
2018-04-18T20:41:56.079Z,21.11
2018-04-18T20:44:25.154Z,21.49
2018-04-18T20:46:53.491Z,21.50
2018-04-18T20:49:21.772Z,21.83
2018-04-18T20:51:50.059Z,21.76
2018-04-18T20:54:18.347Z,21.63
2018-04-18T20:56:46.822Z,21.41
2018-04-18T20:59:15.095Z,21.06
2018-04-18T21:01:43.476Z,20.99
2018-04-18T21:04:12.000Z,20.47
2018-04-18T21:06:41.391Z,20.46
2018-04-18T21:09:10.430Z,20.40
2018-04-18T21:11:38.741Z,20.00
2018-04-18T21:14:07.049Z,19.93
2018-04-18T21:16:36.345Z,19.90
2018-04-18T21:19:04.625Z,19.57
2018-04-18T21:21:32.906Z,19.45
2018-04-18T21:24:01.206Z,19.37
2018-04-18T21:26:29.491Z,19.20
2018-04-18T21:28:57.754Z,19.18
2018-04-18T21:31:26.047Z,19.05
2018-04-18T21:33:54.329Z,19.04
2018-04-18T21:36:22.597Z,19.21
2018-04-18T21:38:50.913Z,18.92
2018-04-18T21:41:19.938Z,18.92
2018-04-18T21:43:48.256Z,18.82
2018-04-18T21:46:16.514Z,18.72
2018-04-18T21:48:44.793Z,18.84
2018-04-18T21:51:13.250Z,19.23
2018-04-18T21:53:41.567Z,18.95
2018-04-18T21:56:09.915Z,18.90
2018-04-18T21:58:38.190Z,18.86
2018-04-18T22:01:06.472Z,18.78
2018-04-18T22:03:34.734Z,18.80
2018-04-18T22:06:03.021Z,18.82
2018-04-18T22:08:31.349Z,18.87
2018-04-18T22:10:59.685Z,18.84
2018-04-18T22:13:27.955Z,18.69
2018-04-18T22:15:56.271Z,18.53
2018-04-18T22:18:25.297Z,18.68
2018-04-18T22:20:53.576Z,18.47
2018-04-18T22:23:21.863Z,18.33
2018-04-18T22:25:50.125Z,18.37
2018-04-18T22:28:18.412Z,18.30
2018-04-18T22:30:46.701Z,18.23
2018-04-18T22:33:15.057Z,18.12
2018-04-18T22:35:43.337Z,18.03
2018-04-18T22:38:11.623Z,18.01
2018-04-18T22:40:39.897Z,17.95
2018-04-18T22:43:08.179Z,18.00
2018-04-18T22:45:36.441Z,18.04
2018-04-18T22:48:04.761Z,17.98
2018-04-18T22:50:33.795Z,18.21
2018-04-18T22:53:02.069Z,18.30
2018-04-18T22:55:30.343Z,18.39
2018-04-18T22:57:58.631Z,18.84
2018-04-18T23:00:26.891Z,19.01
2018-04-18T23:02:55.338Z,19.41
2018-04-18T23:05:24.491Z,19.53
2018-04-18T23:07:52.793Z,19.73
2018-04-18T23:10:21.049Z,19.91
2018-04-18T23:12:49.515Z,20.20
2018-04-18T23:15:17.789Z,20.40
2018-04-18T23:17:46.074Z,20.38
2018-04-18T23:20:14.360Z,20.66
2018-04-18T23:22:42.621Z,20.59
2018-04-18T23:25:10.902Z,20.54
2018-04-18T23:27:39.166Z,20.59
2018-04-18T23:30:07.451Z,20.65
2018-04-18T23:32:35.715Z,20.61
2018-04-18T23:35:03.993Z,20.52
2018-04-18T23:37:32.273Z,20.45
2018-04-18T23:40:00.570Z,19.82
2018-04-18T23:42:28.821Z,19.54
2018-04-18T23:44:57.103Z,19.82
2018-04-18T23:47:25.492Z,19.80
2018-04-18T23:49:53.897Z,19.97
2018-04-18T23:52:22.939Z,19.84
2018-04-18T23:54:51.190Z,19.21
2018-04-18T23:57:19.472Z,18.50
2018-04-18T23:59:47.727Z,18.38
